METAR / TAF

Buochs LSZC 121950Z AUTO 28004KT 230V320 9999 NCD 19/09 Q1016

TAF LSZC 121950Z 1219/1224 CNL


Alpnach AFB LSMA 122020Z AUTO VRB03KT 9999NDV NCD 20/09 Q1016

TAF LSMA 121625Z 1217/1323 04010KT CAVOK BECMG 1218/1220 VRB02KT BECMG 1307/1310 04008KT BECMG 1318/1320 VRB02KT


Emmen AFB LSME 121950Z AUTO 03003KT 9999NDV NCD 21/09 Q1016

TAF LSME 121625Z 1217/1323 05006KT CAVOK BECMG 1219/1221 VRB02KT BECMG 1308/1311 05006KT BECMG 1319/1321 VRB02KT


Bern LSZB 122020Z AUTO VRB01KT 9999 NCD 17/10 Q1016

TAF LSZB 121950Z 1219/1224 CNL


Grenchen LSZG 122020Z AUTO 05003KT 9999 NCD 21/07 Q1016

TAF LSZG 121950Z 1219/1224 CNL


Zurich LSZH 122020Z 06004KT CAVOK 19/09 Q1016 NOSIG

TAF LSZH 122025Z 1221/1403 07004KT CAVOK TX29/1315Z TN12/1304Z BECMG 1308/1311 05009KT BECMG 1318/1321 VRB02KT


Bale LFSB 122000Z AUTO 11006KT 080V140 CAVOK 25/08 Q1015 NOSIG

TAF LFSB 121724Z 1218/1318 11010KT CAVOK TEMPO 1218/1220 11012G22KT BECMG 1306/1308 35005KT BECMG 1313/1315 12012KT


Les Eplatures LSGC 122020Z AUTO 07007KT 030V150 9999 NCD 19/05 Q1018

TAF LSGC 122015Z 1220/1224 CNL


Geneva LSGG 122020Z 03009KT CAVOK 26/05 Q1014 NOSIG

TAF LSGG 122025Z 1221/1403 04006KT CAVOK TX31/1315Z TN15/1304Z TEMPO 1309/1319 9999 FEW080


Sion LSGS 122020Z AUTO 27005KT 240V320 CAVOK 27/07 Q1013

TAF LSGS 122015Z 1220/1224 CNL


Payerne AFB LSMP 121950Z AUTO 05004KT 020V080 9999NDV NCD 22/06 Q1015

TAF LSMP 121625Z 1217/1323 04007KT CAVOK


Lugano LSZA 122020Z AUTO VRB04KT 9999 TS SCT060CB 24/13 Q1015 RETSRA

TAF LSZA 121950Z 1219/1224 CNL


Locarno LSZL 121950Z AUTO 00000KT 9999NDV BKN068 25/17 Q1013

TAF LSZL 121725Z 1218/1303 VRB02KT 9999 SCT070 PROB30 TEMPO 1219/1303 SHRA SCT070TCU


St. Gallen LSZR 122020Z AUTO VRB03KT 9999 NCD 17/10 Q1016

TAF LSZR 121950Z 1219/1224 CNL


Samedan LSZS 122020Z AUTO 02007KT 340V050 9999 NCD 11/02 Q1021

TAF LSZS 121950Z 1219/1224 CNL

Radar

Föhn diagram

From an air pressure difference of approx. 4 hPa (dashed line) between the northern and southern Alps, Föhn can occur. The higher the pressure difference, the more violent the Föhn!

Forecast

Privacy Settings
We use cookies to enhance your experience while using our website. If you are using our Services via a browser you can restrict, block or remove cookies through your web browser settings. We also use content and scripts from third parties that may use tracking technologies. You can selectively provide your consent below to allow such third party embeds. For complete information about the cookies we use, data we collect and how we process them, please check our Privacy Policy
Youtube
Consent to display content from Youtube
Vimeo
Consent to display content from Vimeo
Google Maps
Consent to display content from Google